sensor_id;sensor_type;location;lat;lon;timestamp;pressure;altitude;pressure_sealevel;temperature;humidity
6500;BME280;3283;52.330;9.772;2023-02-20T05:03:13;101163.75;;;6.86;100.00
6500;BME280;3283;52.330;9.772;2023-02-20T05:05:39;101165.66;;;7.04;100.00
6500;BME280;3283;52.330;9.772;2023-02-20T05:08:06;101175.44;;;7.21;100.00
6500;BME280;3283;52.330;9.772;2023-02-20T05:10:33;101169.47;;;7.34;100.00
6500;BME280;3283;52.330;9.772;2023-02-20T05:12:59;101159.06;;;7.43;100.00
6500;BME280;3283;52.330;9.772;2023-02-20T05:15:26;101160.00;;;7.51;100.00
6500;BME280;3283;52.330;9.772;2023-02-20T05:17:51;101160.03;;;7.57;100.00
6500;BME280;3283;52.330;9.772;2023-02-20T05:20:17;101153.13;;;7.67;100.00
6500;BME280;3283;52.330;9.772;2023-02-20T05:22:46;101152.31;;;7.72;100.00
6500;BME280;3283;52.330;9.772;2023-02-20T05:25:13;101141.81;;;7.72;100.00
6500;BME280;3283;52.330;9.772;2023-02-20T05:27:39;101144.50;;;7.79;100.00
6500;BME280;3283;52.330;9.772;2023-02-20T05:30:06;101149.72;;;7.80;100.00
6500;BME280;3283;52.330;9.772;2023-02-20T05:32:32;101149.72;;;7.79;100.00
6500;BME280;3283;52.330;9.772;2023-02-20T05:34:57;101150.59;;;7.81;100.00
6500;BME280;3283;52.330;9.772;2023-02-20T05:37:24;101138.41;;;7.86;100.00
6500;BME280;3283;52.330;9.772;2023-02-20T05:39:50;101144.50;;;7.82;100.00
6500;BME280;3283;52.330;9.772;2023-02-20T05:42:16;101127.94;;;7.86;100.00
6500;BME280;3283;52.330;9.772;2023-02-20T05:44:41;101121.81;;;7.82;100.00
6500;BME280;3283;52.330;9.772;2023-02-20T05:47:07;101122.69;;;7.87;100.00
6500;BME280;3283;52.330;9.772;2023-02-20T05:49:34;101122.69;;;7.87;100.00
6500;BME280;3283;52.330;9.772;2023-02-20T05:52:00;101116.59;;;7.85;100.00
6500;BME280;3283;52.330;9.772;2023-02-20T05:54:26;101114.00;;;7.90;100.00
6500;BME280;3283;52.330;9.772;2023-02-20T05:56:51;101105.22;;;7.88;100.00
6500;BME280;3283;52.330;9.772;2023-02-20T05:59:21;101105.25;;;7.89;100.00
6500;BME280;3283;52.330;9.772;2023-02-20T06:01:48;101105.22;;;7.88;100.00
6500;BME280;3283;52.330;9.772;2023-02-20T06:04:19;101108.69;;;7.81;100.00
6500;BME280;3283;52.330;9.772;2023-02-20T06:06:44;56484.91;;;-143.80;100.00
6500;BME280;3283;52.330;9.772;2023-02-20T06:09:11;101098.28;;;7.90;100.00
6500;BME280;3283;52.330;9.772;2023-02-20T06:11:38;101097.41;;;7.94;99.87
6500;BME280;3283;52.330;9.772;2023-02-20T06:14:05;101075.56;;;7.95;99.70
6500;BME280;3283;52.330;9.772;2023-02-20T06:16:31;101067.72;;;7.95;99.37
6500;BME280;3283;52.330;9.772;2023-02-20T06:18:56;101070.38;;;7.98;99.25
6500;BME280;3283;52.330;9.772;2023-02-20T06:21:23;101057.25;;;7.96;99.39
6500;BME280;3283;52.330;9.772;2023-02-20T06:23:49;101071.22;;;7.98;98.17
6500;BME280;3283;52.330;9.772;2023-02-20T06:26:16;101071.22;;;7.98;98.31
6500;BME280;3283;52.330;9.772;2023-02-20T06:28:42;101085.22;;;8.01;98.54
6500;BME280;3283;52.330;9.772;2023-02-20T06:31:07;56484.91;;;-143.80;100.00
6500;BME280;3283;52.330;9.772;2023-02-20T06:33:33;101084.34;;;8.03;98.46
6500;BME280;3283;52.330;9.772;2023-02-20T06:35:58;56484.91;;;-143.80;100.00
6500;BME280;3283;52.330;9.772;2023-02-20T06:38:24;101083.47;;;7.98;98.69
6500;BME280;3283;52.330;9.772;2023-02-20T06:40:50;101081.72;;;7.97;99.14
6500;BME280;3283;52.330;9.772;2023-02-20T06:43:16;101081.72;;;8.00;99.04
6500;BME280;3283;52.330;9.772;2023-02-20T06:45:41;56484.91;;;-143.80;100.00
6500;BME280;3283;52.330;9.772;2023-02-20T06:48:06;101081.72;;;8.00;99.04
6500;BME280;3283;52.330;9.772;2023-02-20T06:50:32;101080.81;;;7.92;100.00
6500;BME280;3283;52.330;9.772;2023-02-20T06:52:57;56484.91;;;-143.80;100.00
6500;BME280;3283;52.330;9.772;2023-02-20T06:55:23;101093.03;;;7.90;100.00
6500;BME280;3283;52.330;9.772;2023-02-20T06:57:48;101093.03;;;7.90;100.00
6500;BME280;3283;52.330;9.772;2023-02-20T07:00:14;101095.66;;;7.91;100.00
6500;BME280;3283;52.330;9.772;2023-02-20T07:02:40;101107.88;;;7.91;100.00
6500;BME280;3283;52.330;9.772;2023-02-20T07:05:05;101109.63;;;7.90;100.00
6500;BME280;3283;52.330;9.772;2023-02-20T07:07:31;101106.16;;;7.96;100.00
6500;BME280;3283;52.330;9.772;2023-02-20T07:09:56;101106.16;;;7.96;100.00
6500;BME280;3283;52.330;9.772;2023-02-20T07:12:24;101106.19;;;7.97;99.89
6500;BME280;3283;52.330;9.772;2023-02-20T07:14:49;101111.41;;;7.97;99.08
6500;BME280;3283;52.330;9.772;2023-02-20T07:17:15;101103.56;;;7.99;98.11
6500;BME280;3283;52.330;9.772;2023-02-20T07:19:40;101093.94;;;7.99;97.13
6500;BME280;3283;52.330;9.772;2023-02-20T07:22:06;101094.00;;;8.06;97.10
6500;BME280;3283;52.330;9.772;2023-02-20T07:24:31;101084.38;;;8.09;96.15
6500;BME280;3283;52.330;9.772;2023-02-20T07:26:56;101088.75;;;8.09;95.51
6500;BME280;3283;52.330;9.772;2023-02-20T07:29:22;56484.91;;;-143.80;100.00
6500;BME280;3283;52.330;9.772;2023-02-20T07:31:47;101080.00;;;8.08;95.21
6500;BME280;3283;52.330;9.772;2023-02-20T07:34:12;101078.28;;;8.16;95.09
6500;BME280;3283;52.330;9.772;2023-02-20T07:36:40;101078.28;;;8.16;95.09
6500;BME280;3283;52.330;9.772;2023-02-20T07:39:05;56484.91;;;-143.80;100.00
6500;BME280;3283;52.330;9.772;2023-02-20T07:41:31;101074.78;;;8.14;94.89
6500;BME280;3283;52.330;9.772;2023-02-20T07:43:57;56484.91;;;-143.80;100.00
6500;BME280;3283;52.330;9.772;2023-02-20T07:46:23;101066.94;;;8.14;94.97
6500;BME280;3283;52.330;9.772;2023-02-20T07:48:48;56484.91;;;-143.80;100.00
6500;BME280;3283;52.330;9.772;2023-02-20T07:51:15;56484.91;;;-143.80;100.00
6500;BME280;3283;52.330;9.772;2023-02-20T07:53:46;56484.91;;;-143.80;100.00
6500;BME280;3283;52.330;9.772;2023-02-20T07:56:12;56484.91;;;-143.80;100.00
6500;BME280;3283;52.330;9.772;2023-02-20T07:58:38;56484.91;;;-143.80;100.00
6500;BME280;3283;52.330;9.772;2023-02-20T08:01:03;56484.91;;;-143.80;100.00
6500;BME280;3283;52.330;9.772;2023-02-20T08:03:28;56484.91;;;-143.80;100.00
6500;BME280;3283;52.330;9.772;2023-02-20T08:05:54;56484.91;;;-143.80;100.00
6500;BME280;3283;52.330;9.772;2023-02-20T08:08:19;56484.91;;;-143.80;100.00
6500;BME280;3283;52.330;9.772;2023-02-20T08:10:48;56484.91;;;-143.80;100.00
6500;BME280;3283;52.330;9.772;2023-02-20T08:13:13;56484.91;;;-143.80;100.00
6500;BME280;3283;52.330;9.772;2023-02-20T08:15:39;56484.91;;;-143.80;100.00
6500;BME280;3283;52.330;9.772;2023-02-20T08:18:05;56484.91;;;-143.80;100.00
6500;BME280;3283;52.330;9.772;2023-02-20T08:20:31;56484.91;;;-143.80;100.00
6500;BME280;3283;52.330;9.772;2023-02-20T08:22:56;56484.91;;;-143.80;100.00
6500;BME280;3283;52.330;9.772;2023-02-20T08:25:24;56484.91;;;-143.80;100.00
6500;BME280;3283;52.330;9.772;2023-02-20T08:27:50;56484.91;;;-143.80;100.00
6500;BME280;3283;52.330;9.772;2023-02-20T08:30:22;56484.91;;;-143.80;100.00
6500;BME280;3283;52.330;9.772;2023-02-20T08:32:49;56484.91;;;-143.80;100.00
6500;BME280;3283;52.330;9.772;2023-02-20T08:35:15;56484.91;;;-143.80;100.00
6500;BME280;3283;52.330;9.772;2023-02-20T08:37:41;56484.91;;;-143.80;100.00
6500;BME280;3283;52.330;9.772;2023-02-20T08:40:07;56484.91;;;-143.80;100.00
6500;BME280;3283;52.330;9.772;2023-02-20T08:42:33;56484.91;;;-143.80;100.00
6500;BME280;3283;52.330;9.772;2023-02-20T08:44:59;56484.91;;;-143.80;100.00
6500;BME280;3283;52.330;9.772;2023-02-20T08:47:25;56484.91;;;-143.80;100.00
6500;BME280;3283;52.330;9.772;2023-02-20T08:49:50;56484.91;;;-143.80;100.00
6500;BME280;3283;52.330;9.772;2023-02-20T08:52:15;56484.91;;;-143.80;100.00
6500;BME280;3283;52.330;9.772;2023-02-20T08:54:47;56484.91;;;-143.80;100.00
6500;BME280;3283;52.330;9.772;2023-02-20T08:57:14;56484.91;;;-143.80;100.00
6500;BME280;3283;52.330;9.772;2023-02-20T08:59:39;56484.91;;;-143.80;100.00
6500;BME280;3283;52.330;9.772;2023-02-20T09:02:05;56484.91;;;-143.80;100.00
6500;BME280;3283;52.330;9.772;2023-02-20T09:04:31;56484.91;;;-143.80;100.00
6500;BME280;3283;52.330;9.772;2023-02-20T09:06:57;56484.91;;;-143.80;100.00
6500;BME280;3283;52.330;9.772;2023-02-20T09:09:22;56484.91;;;-143.80;100.00
6500;BME280;3283;52.330;9.772;2023-02-20T09:11:48;56484.91;;;-143.80;100.00
6500;BME280;3283;52.330;9.772;2023-02-20T09:14:13;56484.91;;;-143.80;100.00
6500;BME280;3283;52.330;9.772;2023-02-20T09:16:39;56484.91;;;-143.80;100.00
6500;BME280;3283;52.330;9.772;2023-02-20T09:19:07;56484.91;;;-143.80;100.00
6500;BME280;3283;52.330;9.772;2023-02-20T09:21:33;56484.91;;;-143.80;100.00
6500;BME280;3283;52.330;9.772;2023-02-20T09:23:58;56484.91;;;-143.80;100.00
6500;BME280;3283;52.330;9.772;2023-02-20T09:26:24;56484.91;;;-143.80;100.00
6500;BME280;3283;52.330;9.772;2023-02-20T09:28:49;56484.91;;;-143.80;100.00
6500;BME280;3283;52.330;9.772;2023-02-20T09:31:15;56484.91;;;-143.80;100.00
6500;BME280;3283;52.330;9.772;2023-02-20T09:33:44;56484.91;;;-143.80;100.00
6500;BME280;3283;52.330;9.772;2023-02-20T09:36:10;56484.91;;;-143.80;100.00
6500;BME280;3283;52.330;9.772;2023-02-20T09:38:35;56484.91;;;-143.80;100.00
6500;BME280;3283;52.330;9.772;2023-02-20T09:41:01;56484.91;;;-143.80;100.00
6500;BME280;3283;52.330;9.772;2023-02-20T09:46:17;56484.91;;;-143.80;100.00
6500;BME280;3283;52.330;9.772;2023-02-20T09:51:51;56484.91;;;-143.80;100.00
6500;BME280;3283;52.330;9.772;2023-02-20T09:54:30;56484.91;;;-143.80;100.00
6500;BME280;3283;52.330;9.772;2023-02-20T09:57:00;56484.91;;;-143.80;100.00
6500;BME280;3283;52.330;9.772;2023-02-20T09:59:51;56484.91;;;-143.80;100.00
6500;BME280;3283;52.330;9.772;2023-02-20T10:02:18;56484.91;;;-143.80;100.00
6500;BME280;3283;52.330;9.772;2023-02-20T10:04:49;56484.91;;;-143.80;100.00
6500;BME280;3283;52.330;9.772;2023-02-20T10:07:27;56484.91;;;-143.80;100.00
6500;BME280;3283;52.330;9.772;2023-02-20T10:09:54;56484.91;;;-143.80;100.00
6500;BME280;3283;52.330;9.772;2023-02-20T10:15:15;56484.91;;;-143.80;100.00
6500;BME280;3283;52.330;9.772;2023-02-20T10:20:58;56484.91;;;-143.80;100.00
6500;BME280;3283;52.330;9.772;2023-02-20T10:26:00;56484.91;;;-143.80;100.00
6500;BME280;3283;52.330;9.772;2023-02-20T10:28:28;56484.91;;;-143.80;100.00
6500;BME280;3283;52.330;9.772;2023-02-20T10:33:40;56484.91;;;-143.80;100.00
6500;BME280;3283;52.330;9.772;2023-02-20T10:36:12;56484.91;;;-143.80;100.00
6500;BME280;3283;52.330;9.772;2023-02-20T10:38:45;56484.91;;;-143.80;100.00
6500;BME280;3283;52.330;9.772;2023-02-20T10:41:17;56484.91;;;-143.80;100.00
6500;BME280;3283;52.330;9.772;2023-02-20T10:43:49;56484.91;;;-143.80;100.00
6500;BME280;3283;52.330;9.772;2023-02-20T10:46:30;56484.91;;;-143.80;100.00
6500;BME280;3283;52.330;9.772;2023-02-20T10:48:58;56484.91;;;-143.80;100.00
6500;BME280;3283;52.330;9.772;2023-02-20T10:51:33;56484.91;;;-143.80;100.00
6500;BME280;3283;52.330;9.772;2023-02-20T10:59:32;56484.91;;;-143.80;100.00
6500;BME280;3283;52.330;9.772;2023-02-20T11:02:03;56484.91;;;-143.80;100.00
6500;BME280;3283;52.330;9.772;2023-02-20T11:04:36;56484.91;;;-143.80;100.00
6500;BME280;3283;52.330;9.772;2023-02-20T11:09:29;56484.91;;;-143.80;100.00
6500;BME280;3283;52.330;9.772;2023-02-20T11:11:54;56484.91;;;-143.80;100.00
6500;BME280;3283;52.330;9.772;2023-02-20T11:14:44;56484.91;;;-143.80;100.00
6500;BME280;3283;52.330;9.772;2023-02-20T11:17:18;56484.91;;;-143.80;100.00
6500;BME280;3283;52.330;9.772;2023-02-20T11:19:49;56484.91;;;-143.80;100.00
6500;BME280;3283;52.330;9.772;2023-02-20T11:22:17;56484.91;;;-143.80;100.00
6500;BME280;3283;52.330;9.772;2023-02-20T11:24:44;56484.91;;;-143.80;100.00
6500;BME280;3283;52.330;9.772;2023-02-20T11:27:18;56484.91;;;-143.80;100.00
6500;BME280;3283;52.330;9.772;2023-02-20T11:30:00;56484.91;;;-143.80;100.00
6500;BME280;3283;52.330;9.772;2023-02-20T11:32:38;56484.91;;;-143.80;100.00
6500;BME280;3283;52.330;9.772;2023-02-20T11:35:11;56484.91;;;-143.80;100.00
6500;BME280;3283;52.330;9.772;2023-02-20T11:37:39;56484.91;;;-143.80;100.00
6500;BME280;3283;52.330;9.772;2023-02-20T11:40:13;56484.91;;;-143.80;100.00
6500;BME280;3283;52.330;9.772;2023-02-20T11:42:39;56484.91;;;-143.80;100.00
6500;BME280;3283;52.330;9.772;2023-02-20T11:45:13;56484.91;;;-143.80;100.00
6500;BME280;3283;52.330;9.772;2023-02-20T11:47:39;56484.91;;;-143.80;100.00
6500;BME280;3283;52.330;9.772;2023-02-20T11:50:17;56484.91;;;-143.80;100.00
6500;BME280;3283;52.330;9.772;2023-02-20T11:55:23;56484.91;;;-143.80;100.00
6500;BME280;3283;52.330;9.772;2023-02-20T11:57:49;56484.91;;;-143.80;100.00
6500;BME280;3283;52.330;9.772;2023-02-20T12:05:15;56484.91;;;-143.80;100.00
6500;BME280;3283;52.330;9.772;2023-02-20T12:07:55;56484.91;;;-143.80;100.00
6500;BME280;3283;52.330;9.772;2023-02-20T12:12:47;56484.91;;;-143.80;100.00
6500;BME280;3283;52.330;9.772;2023-02-20T12:15:17;56484.91;;;-143.80;100.00
6500;BME280;3283;52.330;9.772;2023-02-20T12:20:33;56484.91;;;-143.80;100.00
6500;BME280;3283;52.330;9.772;2023-02-20T12:31:25;56484.91;;;-143.80;100.00
6500;BME280;3283;52.330;9.772;2023-02-20T12:34:07;56484.91;;;-143.80;100.00
6500;BME280;3283;52.330;9.772;2023-02-20T12:36:39;56484.91;;;-143.80;100.00
6500;BME280;3283;52.330;9.772;2023-02-20T12:42:01;56484.91;;;-143.80;100.00
6500;BME280;3283;52.330;9.772;2023-02-20T12:44:32;56484.91;;;-143.80;100.00
6500;BME280;3283;52.330;9.772;2023-02-20T13:01:09;56484.91;;;-143.80;100.00
6500;BME280;3283;52.330;9.772;2023-02-20T13:09:19;56484.91;;;-143.80;100.00
6500;BME280;3283;52.330;9.772;2023-02-20T13:11:49;56484.91;;;-143.80;100.00
6500;BME280;3283;52.330;9.772;2023-02-20T13:14:17;56484.91;;;-143.80;100.00
6500;BME280;3283;52.330;9.772;2023-02-20T13:19:41;56484.91;;;-143.80;100.00
6500;BME280;3283;52.330;9.772;2023-02-20T13:22:10;56484.91;;;-143.80;100.00
6500;BME280;3283;52.330;9.772;2023-02-20T13:24:37;56484.91;;;-143.80;100.00
6500;BME280;3283;52.330;9.772;2023-02-20T13:27:05;56484.91;;;-143.80;100.00
6500;BME280;3283;52.330;9.772;2023-02-20T13:29:38;56484.91;;;-143.80;100.00
6500;BME280;3283;52.330;9.772;2023-02-20T13:32:24;56484.91;;;-143.80;100.00
6500;BME280;3283;52.330;9.772;2023-02-20T13:34:50;56484.91;;;-143.80;100.00
